createdAt,value
2023-02-11T00:00:42.066Z,101818.31
2023-02-11T00:03:10.554Z,101812.22
2023-02-11T00:05:38.768Z,101805.22
2023-02-11T00:08:06.980Z,101809.56
2023-02-11T00:10:36.606Z,101806.06
2023-02-11T00:13:04.810Z,101789.44
2023-02-11T00:15:32.967Z,101797.28
2023-02-11T00:18:01.038Z,101782.41
2023-02-11T00:20:29.244Z,101786.78
2023-02-11T00:22:57.351Z,101792.88
2023-02-11T00:25:25.509Z,101791.13
2023-02-11T00:27:54.930Z,101802.47
2023-02-11T00:30:23.178Z,101804.22
2023-02-11T00:32:51.366Z,101805.97
2023-02-11T00:35:19.614Z,101805.06
2023-02-11T00:37:47.703Z,101805.06
2023-02-11T00:40:16.833Z,101812.91
2023-02-11T00:42:44.962Z,101805.94
2023-02-11T00:45:14.694Z,101811.16
2023-02-11T00:47:42.836Z,101812.03
2023-02-11T00:50:11.119Z,101807.69
2023-02-11T00:52:39.218Z,101808.53
2023-02-11T00:55:08.113Z,101806.84
2023-02-11T00:57:36.243Z,101806.84
2023-02-11T01:00:05.555Z,101804.25
2023-02-11T01:02:35.413Z,101801.63
2023-02-11T01:05:05.407Z,101796.41
2023-02-11T01:07:34.043Z,101795.50
2023-02-11T01:10:02.253Z,101791.13
2023-02-11T01:12:31.316Z,101795.50
2023-02-11T01:14:59.866Z,101782.41
2023-02-11T01:17:27.926Z,101794.63
2023-02-11T01:19:57.406Z,101782.34
2023-02-11T01:22:25.582Z,101784.06
2023-02-11T01:24:53.757Z,101791.03
2023-02-11T01:27:21.899Z,101786.59
2023-02-11T01:29:50.044Z,101794.38
2023-02-11T01:32:18.138Z,101790.00
2023-02-11T01:34:47.448Z,101796.94
2023-02-11T01:37:16.948Z,101797.81
2023-02-11T01:39:45.122Z,101798.69
2023-02-11T01:42:17.027Z,101809.19
2023-02-11T01:44:45.457Z,101806.59
2023-02-11T01:47:13.569Z,101797.03
2023-02-11T01:49:45.281Z,101790.09
2023-02-11T01:52:20.146Z,101781.38
2023-02-11T01:55:09.883Z,101777.00
2023-02-11T01:57:40.687Z,101770.03
2023-02-11T02:00:14.206Z,101770.03
2023-02-11T02:02:50.116Z,101770.84
2023-02-11T02:05:27.190Z,101782.19
2023-02-11T02:08:04.681Z,101790.06
2023-02-11T02:10:36.636Z,101777.00
2023-02-11T02:13:04.957Z,101774.38
2023-02-11T02:15:34.733Z,101770.06
2023-02-11T02:18:13.955Z,101764.84
2023-02-11T02:21:12.764Z,101768.34
2023-02-11T02:23:59.082Z,101760.47
2023-02-11T02:26:54.103Z,101756.13
2023-02-11T02:29:59.374Z,101754.38
2023-02-11T02:32:47.751Z,101769.22
2023-02-11T02:35:25.788Z,101778.84
2023-02-11T02:38:02.591Z,101771.88
2023-02-11T02:40:35.668Z,101774.50
2023-02-11T02:43:05.581Z,101769.25
2023-02-11T02:45:34.632Z,101764.94
2023-02-11T02:48:04.351Z,101772.81
2023-02-11T02:50:36.175Z,101765.84
2023-02-11T02:53:17.455Z,101759.72
2023-02-11T02:56:00.143Z,101766.75
2023-02-11T02:58:58.958Z,101767.63
2023-02-11T03:01:35.953Z,101765.88
2023-02-11T03:04:13.407Z,101760.63
2023-02-11T03:06:49.668Z,101760.63
2023-02-11T03:09:25.185Z,101764.13
2023-02-11T03:11:53.725Z,101766.75
2023-02-11T03:14:26.763Z,101763.22
2023-02-11T03:16:58.724Z,101766.72
2023-02-11T03:19:31.756Z,101764.97
2023-02-11T03:22:00.943Z,101754.50
2023-02-11T03:24:34.206Z,101754.50
2023-02-11T03:27:09.517Z,101754.50
2023-02-11T03:29:42.226Z,101750.16
2023-02-11T03:32:17.195Z,101749.28
2023-02-11T03:34:51.403Z,101752.78
2023-02-11T03:37:23.413Z,101734.44
2023-02-11T03:39:58.439Z,101740.53
2023-02-11T03:42:31.306Z,101735.31
2023-02-11T03:45:05.199Z,101737.03
2023-02-11T03:47:34.898Z,101731.81
2023-02-11T03:50:07.716Z,101730.06
2023-02-11T03:52:38.212Z,101737.94
2023-02-11T03:55:12.325Z,101740.53
2023-02-11T03:57:40.685Z,101751.88
2023-02-11T04:00:10.284Z,101747.53
2023-02-11T04:02:41.357Z,101758.00
2023-02-11T04:05:16.060Z,101751.03
2023-02-11T04:07:44.335Z,101745.78
2023-02-11T04:10:13.255Z,101753.66
2023-02-11T04:12:41.385Z,101755.41
2023-02-11T04:15:09.826Z,101759.78
2023-02-11T04:17:38.264Z,101759.78
2023-02-11T04:20:06.838Z,101757.16
2023-02-11T04:22:37.665Z,101758.91
2023-02-11T04:25:07.236Z,101765.88
2023-02-11T04:27:35.377Z,101763.28
2023-02-11T04:30:04.096Z,101760.66
2023-02-11T04:32:32.311Z,101777.25
2023-02-11T04:35:00.550Z,101765.03
2023-02-11T04:37:28.946Z,101772.00
2023-02-11T04:39:58.511Z,101763.28
2023-02-11T04:42:26.618Z,101772.00
2023-02-11T04:44:54.750Z,101772.00
2023-02-11T04:47:22.881Z,101774.63
2023-02-11T04:49:51.037Z,101775.50
2023-02-11T04:52:19.216Z,101785.09
2023-02-11T04:54:47.328Z,101778.13
2023-02-11T04:57:16.835Z,101782.47
2023-02-11T04:59:45.180Z,101786.84
2023-02-11T05:02:13.241Z,101786.84
2023-02-11T05:04:41.381Z,101787.72
2023-02-11T05:07:09.457Z,101797.31
2023-02-11T05:09:37.778Z,101800.81
2023-02-11T05:12:05.982Z,101787.72
2023-02-11T05:14:35.731Z,101794.72
2023-02-11T05:17:03.860Z,101785.97
2023-02-11T05:19:32.447Z,101789.47
2023-02-11T05:22:03.397Z,101796.44
2023-02-11T05:24:32.528Z,101796.44
2023-02-11T05:27:01.128Z,101792.09
2023-02-11T05:29:29.546Z,101796.44
2023-02-11T05:32:00.164Z,101790.34
2023-02-11T05:34:28.438Z,101788.59
2023-02-11T05:36:56.684Z,101785.09
2023-02-11T05:39:24.845Z,101795.59
2023-02-11T05:41:52.924Z,101802.56
2023-02-11T05:44:21.363Z,101791.22
2023-02-11T05:46:50.319Z,101801.69
2023-02-11T05:49:20.885Z,101789.47
2023-02-11T05:51:49.074Z,101785.97
2023-02-11T05:54:17.948Z,101794.72
2023-02-11T05:56:46.043Z,101803.44
2023-02-11T05:59:15.955Z,101806.06
2023-02-11T06:01:44.125Z,101800.81
2023-02-11T06:04:12.310Z,101799.94
2023-02-11T06:06:41.705Z,101790.34
2023-02-11T06:09:10.874Z,101792.09
2023-02-11T06:11:39.012Z,101792.09
2023-02-11T06:14:07.913Z,101797.31
2023-02-11T06:16:36.045Z,101806.91
2023-02-11T06:19:04.224Z,101806.91
2023-02-11T06:21:43.258Z,101802.53
2023-02-11T06:24:14.227Z,101813.91
2023-02-11T06:26:42.435Z,101820.88
2023-02-11T06:29:10.758Z,101814.78
2023-02-11T06:31:39.915Z,101819.16
2023-02-11T06:34:08.446Z,101820.91
2023-02-11T06:36:37.096Z,101813.91
2023-02-11T06:39:05.697Z,101817.38
2023-02-11T06:41:35.144Z,101815.66
2023-02-11T06:44:03.325Z,101802.56
2023-02-11T06:46:31.533Z,101809.53
2023-02-11T06:48:59.720Z,101812.16
2023-02-11T06:51:28.441Z,101819.16
2023-02-11T06:53:56.576Z,101824.38
2023-02-11T06:56:27.418Z,101834.00
2023-02-11T06:58:57.931Z,101828.78
2023-02-11T07:01:27.815Z,101827.03
2023-02-11T07:03:56.129Z,101820.88
2023-02-11T07:06:27.841Z,101818.25
2023-02-11T07:08:57.326Z,101822.63
2023-02-11T07:11:26.989Z,101818.25
2023-02-11T07:13:58.318Z,101820.00
2023-02-11T07:16:26.624Z,101827.88
2023-02-11T07:18:54.976Z,101838.34
2023-02-11T07:21:24.889Z,101844.47
2023-02-11T07:23:53.260Z,101847.06
2023-02-11T07:26:24.066Z,101861.09
2023-02-11T07:28:53.082Z,101855.84
2023-02-11T07:31:25.076Z,101867.19
2023-02-11T07:33:55.049Z,101857.59
2023-02-11T07:36:23.829Z,101855.84
2023-02-11T07:38:52.073Z,101861.09
2023-02-11T07:41:22.841Z,101875.06
2023-02-11T07:43:51.734Z,101869.81
2023-02-11T07:46:24.145Z,101870.69
2023-02-11T07:48:52.886Z,101861.06
2023-02-11T07:51:22.787Z,101871.56
2023-02-11T07:53:52.241Z,101879.41
2023-02-11T07:56:21.808Z,101876.81
2023-02-11T07:58:50.701Z,101879.38
2023-02-11T08:01:22.199Z,101886.38
2023-02-11T08:03:52.670Z,101878.50
2023-02-11T08:06:24.803Z,101879.41
2023-02-11T08:08:53.652Z,101882.03
2023-02-11T08:11:25.097Z,101875.91
2023-02-11T08:13:54.286Z,101882.91
2023-02-11T08:16:24.642Z,101882.91
2023-02-11T08:18:57.837Z,101891.66
2023-02-11T08:21:27.201Z,101893.38
2023-02-11T08:23:57.302Z,101885.53
2023-02-11T08:26:29.038Z,101893.44
2023-02-11T08:28:58.982Z,101897.75
2023-02-11T08:31:29.996Z,101896.91
2023-02-11T08:33:59.881Z,101893.44
2023-02-11T08:36:32.191Z,101898.66
2023-02-11T08:39:17.505Z,101910.91
2023-02-11T08:41:49.349Z,101917.06
2023-02-11T08:44:19.155Z,101913.56
2023-02-11T08:46:48.960Z,101912.72
2023-02-11T08:49:18.892Z,101917.09
2023-02-11T08:51:48.281Z,101919.75
2023-02-11T08:54:18.343Z,101910.13
2023-02-11T08:56:47.396Z,101916.25
2023-02-11T08:59:17.820Z,101909.31
2023-02-11T09:01:47.497Z,101904.06
2023-02-11T09:04:16.509Z,101918.03
2023-02-11T09:06:46.542Z,101918.03
2023-02-11T09:09:16.872Z,101920.69
2023-02-11T09:11:48.430Z,101923.31
2023-02-11T09:14:21.842Z,101919.81
2023-02-11T09:16:51.831Z,101936.44
2023-02-11T09:19:20.494Z,101932.97
2023-02-11T09:21:51.802Z,101929.47
2023-02-11T09:24:21.711Z,101935.59
2023-02-11T09:26:50.636Z,101937.34
2023-02-11T09:29:18.911Z,101936.47
2023-02-11T09:31:47.186Z,101931.25
2023-02-11T09:34:15.968Z,101922.53
2023-02-11T09:36:44.150Z,101932.16
2023-02-11T09:39:18.287Z,101931.28
2023-02-11T09:42:23.860Z,101927.78
2023-02-11T09:44:52.379Z,101927.81
2023-02-11T09:47:29.265Z,101933.94
2023-02-11T09:50:02.473Z,101923.44
2023-02-11T09:52:37.972Z,101926.94
2023-02-11T09:55:18.615Z,101922.56
2023-02-11T09:57:46.815Z,101933.97
2023-02-11T10:00:21.124Z,101928.69
2023-02-11T10:03:04.909Z,101934.81
2023-02-11T10:05:49.956Z,101923.44
2023-02-11T10:08:27.269Z,101929.56
2023-02-11T10:11:02.226Z,101927.81
2023-02-11T10:13:42.777Z,101924.31
2023-02-11T10:16:29.376Z,101920.78
2023-02-11T10:19:13.935Z,101924.28
2023-02-11T10:21:52.931Z,101934.78
2023-02-11T10:24:21.809Z,101935.69
2023-02-11T10:26:53.497Z,101931.31
2023-02-11T10:29:34.026Z,101914.66
2023-02-11T10:32:05.528Z,101914.69
2023-02-11T10:34:33.766Z,101916.41
2023-02-11T10:37:01.948Z,101930.41
2023-02-11T10:39:30.364Z,101930.44
2023-02-11T10:42:04.074Z,101928.66
2023-02-11T10:44:34.994Z,101928.66
2023-02-11T10:47:11.726Z,101935.69
2023-02-11T10:49:41.744Z,101931.31
2023-02-11T10:52:20.550Z,101931.25
2023-02-11T10:55:15.637Z,101926.84
2023-02-11T10:57:53.682Z,101929.47
2023-02-11T11:00:32.468Z,101936.47
2023-02-11T11:03:02.977Z,101936.44
2023-02-11T11:05:34.179Z,101933.81
2023-02-11T11:08:05.724Z,101921.50
2023-02-11T11:10:43.401Z,101925.88
2023-02-11T11:13:32.967Z,101925.88
2023-02-11T11:16:21.710Z,101927.63
2023-02-11T11:18:51.460Z,101925.88
2023-02-11T11:21:23.424Z,101928.50
2023-02-11T11:23:56.328Z,101929.31
2023-02-11T11:26:26.985Z,101917.72
2023-02-11T11:29:00.125Z,101920.16
2023-02-11T11:31:33.068Z,101915.72
2023-02-11T11:34:03.876Z,101917.63
2023-02-11T11:36:37.275Z,101920.41
2023-02-11T11:39:20.491Z,101916.97
2023-02-11T11:41:54.716Z,101916.16
2023-02-11T11:44:29.231Z,101902.94
2023-02-11T11:47:21.379Z,101907.25
2023-02-11T11:49:57.436Z,101894.88
2023-02-11T11:52:39.520Z,101893.13
2023-02-11T11:55:18.865Z,101894.00
2023-02-11T11:57:47.640Z,101892.25
2023-02-11T12:00:20.638Z,101893.97
2023-02-11T12:03:27.092Z,101897.41
2023-02-11T12:06:08.961Z,101903.66
2023-02-11T12:08:46.718Z,101908.94
2023-02-11T12:11:24.382Z,101902.88
2023-02-11T12:14:07.930Z,101895.75
2023-02-11T12:16:50.057Z,101888.28
2023-02-11T12:19:44.549Z,101889.50
2023-02-11T12:22:14.029Z,101899.91
2023-02-11T12:24:57.397Z,101896.63
2023-02-11T12:27:42.541Z,101890.91
2023-02-11T12:30:23.840Z,101894.63
2023-02-11T12:33:00.120Z,101897.13
2023-02-11T12:35:38.616Z,101900.59
2023-02-11T12:38:23.021Z,101902.28
2023-02-11T12:41:01.105Z,101898.69
2023-02-11T12:43:36.176Z,101897.00
2023-02-11T12:46:29.733Z,101887.44
2023-02-11T12:49:12.313Z,101896.31
2023-02-11T12:51:56.506Z,101898.09
2023-02-11T12:54:31.011Z,101901.63
2023-02-11T12:57:04.514Z,101898.19
2023-02-11T12:59:42.075Z,101899.06
2023-02-11T13:02:20.106Z,101892.09
2023-02-11T13:04:55.173Z,101887.88
2023-02-11T13:07:29.217Z,101894.09
2023-02-11T13:10:03.176Z,101895.06
2023-02-11T13:12:51.268Z,101897.72
2023-02-11T13:15:19.505Z,101890.72
2023-02-11T13:17:57.881Z,101901.22
2023-02-11T13:20:40.351Z,101895.03
2023-02-11T13:23:20.476Z,101891.47
2023-02-11T13:25:55.919Z,101889.63
2023-02-11T13:28:34.791Z,101883.44
2023-02-11T13:31:07.071Z,101896.53
2023-02-11T13:33:37.585Z,101894.00
2023-02-11T13:36:26.848Z,101886.97
2023-02-11T13:38:59.863Z,101888.81
2023-02-11T13:41:33.995Z,101892.44
2023-02-11T13:44:06.414Z,101888.94
2023-02-11T13:46:58.205Z,101890.72
2023-02-11T13:49:32.643Z,101888.94
2023-02-11T13:52:04.771Z,101888.91
2023-02-11T13:54:37.520Z,101888.03
2023-02-11T13:57:43.150Z,101871.41
2023-02-11T14:00:48.489Z,101879.34
2023-02-11T14:03:43.466Z,101887.25
2023-02-11T14:06:35.084Z,101874.97
2023-02-11T14:09:26.189Z,101864.47
2023-02-11T14:11:57.296Z,101864.50
2023-02-11T14:14:27.738Z,101862.72
2023-02-11T14:17:31.557Z,101868.88
2023-02-11T14:20:00.818Z,101862.69
2023-02-11T14:22:31.775Z,101865.28
2023-02-11T14:25:04.376Z,101874.06
2023-02-11T14:27:41.784Z,101866.16
2023-02-11T14:30:21.888Z,101872.28
2023-02-11T14:33:07.096Z,101871.44
2023-02-11T14:35:42.155Z,101876.69
2023-02-11T14:38:21.424Z,101868.81
2023-02-11T14:40:58.126Z,101881.09
2023-02-11T14:43:31.933Z,101890.72
2023-02-11T14:46:02.495Z,101882.00
2023-02-11T14:48:32.562Z,101877.66
2023-02-11T14:51:04.473Z,101876.81
2023-02-11T14:53:34.334Z,101875.91
2023-02-11T14:56:03.826Z,101874.19
2023-02-11T14:58:34.439Z,101873.34
2023-02-11T15:01:06.534Z,101871.63
2023-02-11T15:03:37.862Z,101875.09
2023-02-11T15:06:14.815Z,101878.66
2023-02-11T15:08:46.658Z,101882.16
2023-02-11T15:11:19.302Z,101869.91
2023-02-11T15:13:49.786Z,101869.91
2023-02-11T15:16:21.451Z,101873.41
2023-02-11T15:18:53.036Z,101874.31
2023-02-11T15:21:23.336Z,101887.47
2023-02-11T15:24:00.477Z,101891.88
2023-02-11T15:26:31.189Z,101896.22
2023-02-11T15:28:59.823Z,101891.00
2023-02-11T15:31:30.737Z,101894.47
2023-02-11T15:34:08.930Z,101898.88
2023-02-11T15:36:37.887Z,101893.59
2023-02-11T15:39:19.239Z,101891.84
2023-02-11T15:41:48.807Z,101888.34
2023-02-11T15:44:29.546Z,101891.00
2023-02-11T15:46:58.220Z,101883.97
2023-02-11T15:49:26.971Z,101896.25
2023-02-11T15:51:58.114Z,101901.53
2023-02-11T15:54:32.109Z,101901.53
2023-02-11T15:57:05.625Z,101893.63
2023-02-11T15:59:38.321Z,101898.03
2023-02-11T16:02:11.233Z,101898.03
2023-02-11T16:04:39.660Z,101904.16
2023-02-11T16:07:07.880Z,101902.44
2023-02-11T16:09:37.753Z,101904.19
2023-02-11T16:12:27.070Z,101901.53
2023-02-11T16:14:56.565Z,101905.06
2023-02-11T16:17:27.647Z,101916.44
2023-02-11T16:19:56.306Z,101915.56
2023-02-11T16:22:27.506Z,101906.81
2023-02-11T16:24:58.408Z,101912.94
2023-02-11T16:27:30.745Z,101898.97
2023-02-11T16:29:59.798Z,101913.81
2023-02-11T16:32:30.111Z,101911.16
2023-02-11T16:35:00.968Z,101911.19
2023-02-11T16:37:29.232Z,101913.81
2023-02-11T16:39:58.263Z,101909.41
2023-02-11T16:42:26.500Z,101905.06
2023-02-11T16:44:55.973Z,101905.94
2023-02-11T16:47:25.999Z,101901.53
2023-02-11T16:49:54.869Z,101907.66
2023-02-11T16:52:23.563Z,101908.53
2023-02-11T16:54:52.018Z,101925.16
2023-02-11T16:57:22.196Z,101926.88
2023-02-11T16:59:50.997Z,101923.38
2023-02-11T17:02:24.328Z,101927.75
2023-02-11T17:04:54.708Z,101935.59
2023-02-11T17:07:23.661Z,101934.75
2023-02-11T17:09:53.164Z,101931.22
2023-02-11T17:12:21.561Z,101928.59
2023-02-11T17:14:50.020Z,101929.47
2023-02-11T17:17:18.911Z,101932.97
2023-02-11T17:19:48.830Z,101930.34
2023-02-11T17:22:17.200Z,101934.69
2023-02-11T17:24:45.588Z,101937.31
2023-02-11T17:27:15.341Z,101946.88
2023-02-11T17:29:43.770Z,101948.59
2023-02-11T17:32:12.208Z,101938.09
2023-02-11T17:34:40.606Z,101947.69
2023-02-11T17:37:10.230Z,101946.78
2023-02-11T17:39:40.102Z,101966.03
2023-02-11T17:42:08.898Z,101969.53
2023-02-11T17:44:37.447Z,101969.47
2023-02-11T17:47:05.799Z,101965.13
2023-02-11T17:49:34.285Z,101967.75
2023-02-11T17:52:02.483Z,101966.00
2023-02-11T17:54:32.174Z,101973.84
2023-02-11T17:57:00.654Z,101961.59
2023-02-11T17:59:35.374Z,101970.31
2023-02-11T18:02:04.265Z,101973.78
2023-02-11T18:04:33.102Z,101970.25
2023-02-11T18:07:01.521Z,101972.88
2023-02-11T18:09:31.070Z,101967.59
2023-02-11T18:11:59.293Z,101977.19
2023-02-11T18:14:27.443Z,101986.78
2023-02-11T18:16:55.798Z,101991.16
2023-02-11T18:19:23.923Z,101992.03
2023-02-11T18:21:52.062Z,101981.56
2023-02-11T18:24:20.209Z,101993.78
2023-02-11T18:26:49.803Z,101998.16
2023-02-11T18:29:17.962Z,102006.00
2023-02-11T18:31:46.372Z,102010.38
2023-02-11T18:34:15.879Z,101998.13
2023-02-11T18:36:44.490Z,101995.50
2023-02-11T18:39:12.545Z,101992.00
2023-02-11T18:41:42.306Z,102004.19
2023-02-11T18:44:12.216Z,101991.94
2023-02-11T18:46:40.542Z,101992.78
2023-02-11T18:49:09.903Z,101996.25
2023-02-11T18:51:38.086Z,101986.63
2023-02-11T18:54:06.379Z,101993.59
2023-02-11T18:56:34.660Z,101990.97
2023-02-11T18:59:03.238Z,101993.56
2023-02-11T19:01:34.368Z,102005.78
2023-02-11T19:04:04.738Z,102000.53
2023-02-11T19:06:36.352Z,101992.63
2023-02-11T19:09:07.745Z,102000.47
2023-02-11T19:11:53.544Z,101998.72
2023-02-11T19:14:24.066Z,101996.16
2023-02-11T19:16:55.998Z,102001.41
2023-02-11T19:19:26.930Z,101998.78
2023-02-11T19:21:56.242Z,101994.41
2023-02-11T19:24:25.302Z,101995.31
2023-02-11T19:26:54.793Z,101987.44
2023-02-11T19:29:23.005Z,102000.53
2023-02-11T19:31:51.279Z,102002.28
2023-02-11T19:34:21.715Z,102002.25
2023-02-11T19:36:50.753Z,101998.78
2023-02-11T19:39:19.854Z,102000.53
2023-02-11T19:41:48.308Z,102012.75
2023-02-11T19:44:16.718Z,102007.50
2023-02-11T19:46:46.112Z,101997.91
2023-02-11T19:49:16.534Z,102006.63
2023-02-11T19:51:46.053Z,102010.13
2023-02-11T19:54:14.760Z,102010.13
2023-02-11T19:56:45.204Z,102018.81
2023-02-11T19:59:13.374Z,102009.22
2023-02-11T20:01:42.222Z,102010.94
2023-02-11T20:04:10.804Z,102005.69
2023-02-11T20:06:38.925Z,102007.41
2023-02-11T20:09:12.368Z,102011.72
2023-02-11T20:11:41.360Z,102002.06
2023-02-11T20:14:10.596Z,102012.53
2023-02-11T20:16:48.015Z,102015.13
2023-02-11T20:19:18.774Z,102020.38
2023-02-11T20:21:48.476Z,102024.78
2023-02-11T20:24:19.497Z,102011.66
2023-02-11T20:26:48.712Z,102016.00
2023-02-11T20:29:18.051Z,102009.03
2023-02-11T20:31:46.685Z,102009.06
2023-02-11T20:34:17.485Z,102003.84
2023-02-11T20:36:51.815Z,102008.16
2023-02-11T20:39:22.865Z,102016.00
2023-02-11T20:41:52.396Z,102009.03
2023-02-11T20:44:22.587Z,102005.53
2023-02-11T20:46:51.601Z,102021.19
2023-02-11T20:49:22.614Z,102016.81
2023-02-11T20:51:51.317Z,102015.88
2023-02-11T20:54:22.083Z,102020.22
2023-02-11T20:56:51.860Z,102018.47
2023-02-11T20:59:20.994Z,102025.41
2023-02-11T21:01:53.568Z,102027.13
2023-02-11T21:04:23.572Z,102021.84
2023-02-11T21:06:54.401Z,102020.09
2023-02-11T21:09:26.700Z,102021.84
2023-02-11T21:11:55.571Z,102020.97
2023-02-11T21:14:25.197Z,102031.50
2023-02-11T21:16:53.825Z,102023.66
2023-02-11T21:19:21.969Z,102015.81
2023-02-11T21:21:50.459Z,102022.78
2023-02-11T21:24:18.714Z,102034.06
2023-02-11T21:26:48.234Z,102030.56
2023-02-11T21:29:16.558Z,102025.34
2023-02-11T21:31:44.992Z,102027.09
2023-02-11T21:34:13.165Z,102028.81
2023-02-11T21:36:41.347Z,102027.06
2023-02-11T21:39:09.773Z,102027.06
2023-02-11T21:41:38.024Z,102020.97
2023-02-11T21:44:07.518Z,102022.66
2023-02-11T21:46:35.725Z,102035.72
2023-02-11T21:49:04.228Z,102037.47
2023-02-11T21:51:32.410Z,102031.34
2023-02-11T21:54:02.270Z,102027.00
2023-02-11T21:56:31.895Z,102036.53
2023-02-11T21:59:01.003Z,102041.75
2023-02-11T22:01:32.143Z,102026.94
2023-02-11T22:04:00.720Z,102026.13
2023-02-11T22:06:31.767Z,102029.59
2023-02-11T22:09:02.888Z,102026.94
2023-02-11T22:11:31.040Z,102026.94
2023-02-11T22:14:00.123Z,102028.69
2023-02-11T22:16:30.870Z,102040.00
2023-02-11T22:18:59.687Z,102029.53
2023-02-11T22:21:28.139Z,102019.03
2023-02-11T22:23:56.943Z,102027.72
2023-02-11T22:26:26.889Z,102025.09
2023-02-11T22:28:55.963Z,102025.94
2023-02-11T22:31:26.636Z,102043.19
2023-02-11T22:33:56.623Z,102045.72
2023-02-11T22:36:26.561Z,102046.50
2023-02-11T22:38:55.145Z,102041.28
2023-02-11T22:41:23.952Z,102042.19
2023-02-11T22:43:52.969Z,102046.59
2023-02-11T22:46:21.393Z,102036.13
2023-02-11T22:48:50.169Z,102035.31
2023-02-11T22:51:22.263Z,102041.41
2023-02-11T22:53:51.936Z,102043.16
2023-02-11T22:56:20.462Z,102038.81
2023-02-11T22:58:49.398Z,102038.78
2023-02-11T23:01:18.319Z,102038.75
2023-02-11T23:03:46.938Z,102048.34
2023-02-11T23:06:15.498Z,102054.47
2023-02-11T23:08:45.455Z,102044.84
2023-02-11T23:11:17.050Z,102043.13
2023-02-11T23:13:46.845Z,102056.19
2023-02-11T23:16:18.241Z,102056.16
2023-02-11T23:18:48.118Z,102054.41
2023-02-11T23:21:18.293Z,102051.78
2023-02-11T23:23:49.132Z,102055.22
2023-02-11T23:26:19.176Z,102048.22
2023-02-11T23:28:48.205Z,102045.59
2023-02-11T23:31:20.434Z,102044.72
2023-02-11T23:33:48.851Z,102042.09
2023-02-11T23:36:18.525Z,102053.38
2023-02-11T23:38:48.693Z,102046.41
2023-02-11T23:41:17.917Z,102046.41
2023-02-11T23:43:49.510Z,102048.22
2023-02-11T23:46:18.075Z,102052.56
2023-02-11T23:48:46.278Z,102047.38
2023-02-11T23:51:14.846Z,102055.22
2023-02-11T23:53:45.734Z,102050.00
2023-02-11T23:56:18.505Z,102044.75
2023-02-11T23:58:49.400Z,102042.16
